createdAt,value
2018-03-26T00:01:12.503Z,11.76
2018-03-26T00:03:40.800Z,11.87
2018-03-26T00:06:09.083Z,11.83
2018-03-26T00:08:37.368Z,11.73
2018-03-26T00:11:05.667Z,11.76
2018-03-26T00:13:33.949Z,11.72
2018-03-26T00:16:02.244Z,11.73
2018-03-26T00:18:30.528Z,11.76
2018-03-26T00:20:58.812Z,11.76
2018-03-26T00:23:27.094Z,11.79
2018-03-26T00:25:55.388Z,11.76
2018-03-26T00:28:23.671Z,11.74
2018-03-26T00:30:51.951Z,11.74
2018-03-26T00:33:20.248Z,11.69
2018-03-26T00:35:48.520Z,11.65
2018-03-26T00:38:16.800Z,11.68
2018-03-26T00:40:45.116Z,11.60
2018-03-26T00:43:13.448Z,11.58
2018-03-26T00:45:41.681Z,11.51
2018-03-26T00:48:09.983Z,11.42
2018-03-26T00:50:38.263Z,11.44
2018-03-26T00:53:06.555Z,11.43
2018-03-26T00:55:34.840Z,11.36
2018-03-26T00:58:03.116Z,11.27
2018-03-26T01:00:31.408Z,11.35
2018-03-26T01:02:59.700Z,11.32
2018-03-26T01:05:27.981Z,11.26
2018-03-26T01:07:56.261Z,11.10
2018-03-26T01:10:24.572Z,11.29
2018-03-26T01:12:52.868Z,11.25
2018-03-26T01:15:21.153Z,11.20
2018-03-26T01:17:49.448Z,11.16
2018-03-26T01:20:17.732Z,11.10
2018-03-26T01:22:46.016Z,11.10
2018-03-26T01:25:14.309Z,10.88
2018-03-26T01:27:42.592Z,11.02
2018-03-26T01:30:10.872Z,10.95
2018-03-26T01:32:39.171Z,11.02
2018-03-26T01:35:07.451Z,10.94
2018-03-26T01:37:35.743Z,10.91
2018-03-26T01:40:04.040Z,10.93
2018-03-26T01:42:32.318Z,10.87
2018-03-26T01:45:00.628Z,10.80
2018-03-26T01:47:28.919Z,10.75
2018-03-26T01:49:57.196Z,10.78
2018-03-26T01:52:25.479Z,10.89
2018-03-26T01:54:53.779Z,10.72
2018-03-26T01:57:22.067Z,10.75
2018-03-26T01:59:50.344Z,10.69
2018-03-26T02:02:18.640Z,10.62
2018-03-26T02:04:46.947Z,10.63
2018-03-26T02:07:15.199Z,10.69
2018-03-26T02:09:43.504Z,10.58
2018-03-26T02:12:11.780Z,10.55
2018-03-26T02:14:40.055Z,10.55
2018-03-26T02:17:08.347Z,10.65
2018-03-26T02:19:36.627Z,10.62
2018-03-26T02:22:04.928Z,10.31
2018-03-26T02:24:33.208Z,10.38
2018-03-26T02:27:01.491Z,10.38
2018-03-26T02:29:29.780Z,10.47
2018-03-26T02:31:58.073Z,10.45
2018-03-26T02:34:26.371Z,10.27
2018-03-26T02:36:54.651Z,10.35
2018-03-26T02:39:22.932Z,10.38
2018-03-26T02:41:51.228Z,10.45
2018-03-26T02:44:19.520Z,10.47
2018-03-26T02:46:47.818Z,10.34
2018-03-26T02:49:16.098Z,10.33
2018-03-26T02:51:44.373Z,10.31
2018-03-26T02:54:12.672Z,10.32
2018-03-26T02:56:40.962Z,10.31
2018-03-26T02:59:09.239Z,10.36
2018-03-26T03:01:37.792Z,10.47
2018-03-26T03:04:06.072Z,10.40
2018-03-26T03:06:34.364Z,10.54
2018-03-26T03:09:02.647Z,10.46
2018-03-26T03:11:30.957Z,10.43
2018-03-26T03:13:59.239Z,10.48
2018-03-26T03:16:27.523Z,10.32
2018-03-26T03:18:55.826Z,10.36
2018-03-26T03:21:24.118Z,10.25
2018-03-26T03:23:52.407Z,10.26
2018-03-26T03:26:20.692Z,10.33
2018-03-26T03:28:48.975Z,10.22
2018-03-26T03:31:17.264Z,10.29
2018-03-26T03:33:45.543Z,10.22
2018-03-26T03:36:13.845Z,10.26
2018-03-26T03:38:42.128Z,10.27
2018-03-26T03:41:10.410Z,10.33
2018-03-26T03:43:38.700Z,10.25
2018-03-26T03:46:06.983Z,10.24
2018-03-26T03:48:35.284Z,10.15
2018-03-26T03:51:03.563Z,10.05
2018-03-26T03:53:31.848Z,10.14
2018-03-26T03:56:00.144Z,10.14
2018-03-26T03:58:28.431Z,10.06
2018-03-26T04:00:56.728Z,10.03
2018-03-26T04:03:25.010Z,9.97
2018-03-26T04:05:53.284Z,10.09
2018-03-26T04:08:21.571Z,10.08
2018-03-26T04:10:49.852Z,10.18
2018-03-26T04:13:18.151Z,10.19
2018-03-26T04:15:46.432Z,10.22
2018-03-26T04:18:14.700Z,10.25
2018-03-26T04:20:43.003Z,10.14
2018-03-26T04:23:11.291Z,10.29
2018-03-26T04:25:39.591Z,10.22
2018-03-26T04:28:07.871Z,10.12
2018-03-26T04:30:36.147Z,10.23
2018-03-26T04:33:04.442Z,10.14
2018-03-26T04:35:32.719Z,10.05
2018-03-26T04:38:01.019Z,10.16
2018-03-26T04:40:29.295Z,10.04
2018-03-26T04:42:57.580Z,10.03
2018-03-26T04:45:25.871Z,10.01
2018-03-26T04:47:54.144Z,10.10
2018-03-26T04:50:22.439Z,10.06
2018-03-26T04:52:50.720Z,10.06
2018-03-26T04:55:19.012Z,10.12
2018-03-26T04:57:47.303Z,10.07
2018-03-26T05:00:15.576Z,9.98
2018-03-26T05:02:43.875Z,10.01
2018-03-26T05:05:12.155Z,9.83
2018-03-26T05:07:40.432Z,9.98
2018-03-26T05:10:08.720Z,9.96
2018-03-26T05:12:36.995Z,9.92
2018-03-26T05:15:05.528Z,9.94
2018-03-26T05:17:33.803Z,9.96
2018-03-26T05:20:02.083Z,9.94
2018-03-26T05:22:30.370Z,9.99
2018-03-26T05:24:58.648Z,9.91
2018-03-26T05:27:26.936Z,9.84
2018-03-26T05:29:55.228Z,9.49
2018-03-26T05:32:23.495Z,9.70
2018-03-26T05:34:51.784Z,9.83
2018-03-26T05:37:20.055Z,9.83
2018-03-26T05:39:48.377Z,9.54
2018-03-26T05:42:16.652Z,9.59
2018-03-26T05:44:44.927Z,9.71
2018-03-26T05:47:13.216Z,9.76
2018-03-26T05:49:41.488Z,9.50
2018-03-26T05:52:09.815Z,9.35
2018-03-26T05:54:38.102Z,9.38
2018-03-26T05:57:06.379Z,9.12
2018-03-26T05:59:34.670Z,9.36
2018-03-26T06:02:02.942Z,9.47
2018-03-26T06:04:31.231Z,9.53
2018-03-26T06:06:59.555Z,9.53
2018-03-26T06:09:27.783Z,9.34
2018-03-26T06:11:56.095Z,9.31
2018-03-26T06:14:24.354Z,9.47
2018-03-26T06:17:04.556Z,9.39
2018-03-26T06:19:32.832Z,9.20
2018-03-26T06:22:01.112Z,9.37
2018-03-26T06:24:29.391Z,9.51
2018-03-26T06:26:57.672Z,9.08
2018-03-26T06:29:25.983Z,9.28
2018-03-26T06:31:54.247Z,9.18
2018-03-26T06:34:22.523Z,9.23
2018-03-26T06:36:51.675Z,9.03
2018-03-26T06:39:24.335Z,9.35
2018-03-26T06:41:52.623Z,9.15
2018-03-26T06:44:20.896Z,9.30
2018-03-26T06:46:49.507Z,9.63
2018-03-26T06:49:17.785Z,9.39
2018-03-26T06:51:46.064Z,9.41
2018-03-26T06:54:14.360Z,9.55
2018-03-26T06:56:42.660Z,9.55
2018-03-26T06:59:10.958Z,9.57
2018-03-26T07:01:39.217Z,9.66
2018-03-26T07:04:07.496Z,9.17
2018-03-26T07:06:35.776Z,9.45
2018-03-26T07:09:04.054Z,9.57
2018-03-26T07:11:32.352Z,9.52
2018-03-26T07:14:00.645Z,9.36
2018-03-26T07:16:28.901Z,9.13
2018-03-26T07:18:57.233Z,9.27
2018-03-26T07:21:25.461Z,9.54
2018-03-26T07:23:53.765Z,9.44
2018-03-26T07:26:22.040Z,9.32
2018-03-26T07:28:50.317Z,9.58
2018-03-26T07:31:18.642Z,9.27
2018-03-26T07:33:46.888Z,9.50
2018-03-26T07:36:15.184Z,9.61
2018-03-26T07:38:43.464Z,9.96
2018-03-26T07:41:11.777Z,10.12
2018-03-26T07:43:40.049Z,10.06
2018-03-26T07:46:08.408Z,10.20
2018-03-26T07:48:36.707Z,10.08
2018-03-26T07:51:04.999Z,10.50
2018-03-26T07:53:33.280Z,10.15
2018-03-26T07:56:01.572Z,10.24
2018-03-26T07:58:29.862Z,10.91
2018-03-26T08:00:58.164Z,11.87
2018-03-26T08:03:26.452Z,11.57
2018-03-26T08:05:54.744Z,11.42
2018-03-26T08:08:23.032Z,10.75
2018-03-26T08:10:51.310Z,11.43
2018-03-26T08:13:19.615Z,11.11
2018-03-26T08:15:47.899Z,10.96
2018-03-26T08:18:16.185Z,11.43
2018-03-26T08:20:44.474Z,11.30
2018-03-26T08:23:12.763Z,11.25
2018-03-26T08:25:41.074Z,11.09
2018-03-26T08:28:09.352Z,10.74
2018-03-26T08:30:37.631Z,10.72
2018-03-26T08:33:05.932Z,10.94
2018-03-26T08:35:34.216Z,10.93
2018-03-26T08:38:02.512Z,10.92
2018-03-26T08:40:30.831Z,11.66
2018-03-26T08:42:59.139Z,11.42
2018-03-26T08:45:27.469Z,12.54
2018-03-26T08:47:55.751Z,12.26
2018-03-26T08:50:24.092Z,12.68
2018-03-26T08:52:52.325Z,12.97
2018-03-26T08:55:20.607Z,13.35
2018-03-26T08:57:48.908Z,12.52
2018-03-26T09:00:17.192Z,12.93
2018-03-26T09:02:45.504Z,12.36
2018-03-26T09:05:13.791Z,12.82
2018-03-26T09:07:42.075Z,13.15
2018-03-26T09:10:10.363Z,13.81
2018-03-26T09:12:38.643Z,13.54
2018-03-26T09:15:06.943Z,14.27
2018-03-26T09:17:35.376Z,14.74
2018-03-26T09:20:03.608Z,14.50
2018-03-26T09:22:31.908Z,13.84
2018-03-26T09:25:00.199Z,13.96
2018-03-26T09:27:28.476Z,13.80
2018-03-26T09:29:56.765Z,14.09
2018-03-26T09:32:25.073Z,14.00
2018-03-26T09:34:53.379Z,13.99
2018-03-26T09:37:21.672Z,15.20
2018-03-26T09:39:49.956Z,14.65
2018-03-26T09:42:18.248Z,13.74
2018-03-26T09:44:46.568Z,13.24
2018-03-26T09:47:14.851Z,14.14
2018-03-26T09:49:43.151Z,13.33
2018-03-26T09:52:11.439Z,13.85
2018-03-26T09:54:39.731Z,14.59
2018-03-26T09:57:08.083Z,14.67
2018-03-26T09:59:36.436Z,13.21
2018-03-26T10:02:04.734Z,13.41
2018-03-26T10:04:33.034Z,13.25
2018-03-26T10:07:01.319Z,13.19
2018-03-26T10:09:29.618Z,12.72
2018-03-26T10:11:57.947Z,13.10
2018-03-26T10:14:26.376Z,13.23
2018-03-26T10:16:54.989Z,14.51
2018-03-26T10:19:23.292Z,14.48
2018-03-26T10:21:51.576Z,13.96
2018-03-26T10:24:19.872Z,15.09
2018-03-26T10:26:48.151Z,15.18
2018-03-26T10:29:17.267Z,15.40
2018-03-26T10:31:45.582Z,14.64
2018-03-26T10:34:13.861Z,14.31
2018-03-26T10:36:42.242Z,13.69
2018-03-26T10:39:10.530Z,14.84
2018-03-26T10:41:39.496Z,13.80
2018-03-26T10:44:07.800Z,14.31
2018-03-26T10:46:36.072Z,14.32
2018-03-26T10:49:04.368Z,13.93
2018-03-26T10:51:32.666Z,14.55
2018-03-26T10:54:00.940Z,14.04
2018-03-26T10:56:29.239Z,15.02
2018-03-26T10:58:57.507Z,15.15
2018-03-26T11:01:25.796Z,14.40
2018-03-26T11:03:54.113Z,14.94
2018-03-26T11:06:22.395Z,15.19
2018-03-26T11:08:50.694Z,15.38
2018-03-26T11:11:18.975Z,14.36
2018-03-26T11:13:47.252Z,13.75
2018-03-26T11:16:15.544Z,14.53
2018-03-26T11:18:43.834Z,14.08
2018-03-26T11:21:12.463Z,14.06
2018-03-26T11:23:40.740Z,13.59
2018-03-26T11:26:09.023Z,14.19
2018-03-26T11:28:37.315Z,14.26
2018-03-26T11:31:05.596Z,14.01
2018-03-26T11:33:33.906Z,13.58
2018-03-26T11:36:02.204Z,14.17
2018-03-26T11:38:30.482Z,15.02
2018-03-26T11:40:58.775Z,14.84
2018-03-26T11:43:27.067Z,14.22
2018-03-26T11:45:55.366Z,14.50
2018-03-26T11:51:20.795Z,13.71
2018-03-26T11:53:49.087Z,13.85
2018-03-26T11:56:17.371Z,13.82
2018-03-26T11:58:45.659Z,14.61
2018-03-26T12:01:13.944Z,14.52
2018-03-26T12:03:42.239Z,13.45
2018-03-26T12:06:10.521Z,13.45
2018-03-26T12:08:38.815Z,13.75
2018-03-26T12:11:07.085Z,14.23
2018-03-26T12:13:35.376Z,14.64
2018-03-26T12:16:03.643Z,15.05
2018-03-26T12:18:31.943Z,13.94
2018-03-26T12:21:02.197Z,14.06
2018-03-26T12:23:42.296Z,14.67
2018-03-26T12:26:10.576Z,14.79
2018-03-26T12:28:50.643Z,14.57
2018-03-26T12:31:18.934Z,14.18
2018-03-26T12:33:58.980Z,14.67
2018-03-26T12:36:27.248Z,14.41
2018-03-26T12:38:55.577Z,13.91
2018-03-26T12:41:23.831Z,13.75
2018-03-26T12:43:52.119Z,13.97
2018-03-26T12:46:32.256Z,14.05
2018-03-26T12:49:00.551Z,13.86
2018-03-26T12:51:40.742Z,13.93
2018-03-26T12:54:09.015Z,14.34
2018-03-26T12:56:38.231Z,14.83
2018-03-26T12:59:06.507Z,13.89
2018-03-26T13:01:46.699Z,14.47
2018-03-26T13:04:14.992Z,14.65
2018-03-26T13:06:43.263Z,14.47
2018-03-26T13:09:11.861Z,14.07
2018-03-26T13:11:40.127Z,13.69
2018-03-26T13:14:08.408Z,13.60
2018-03-26T13:16:36.743Z,13.57
2018-03-26T13:19:05.039Z,13.62
2018-03-26T13:21:33.331Z,13.67
2018-03-26T13:24:01.612Z,13.40
2018-03-26T13:26:29.904Z,13.23
2018-03-26T13:28:58.183Z,13.27
2018-03-26T13:31:26.499Z,13.15
2018-03-26T13:33:54.776Z,13.01
2018-03-26T13:36:23.048Z,12.97
2018-03-26T13:38:51.329Z,13.17
2018-03-26T13:41:19.599Z,12.88
2018-03-26T13:43:47.884Z,12.61
2018-03-26T13:46:16.156Z,12.72
2018-03-26T13:48:44.456Z,12.74
2018-03-26T13:51:12.731Z,12.49
2018-03-26T13:53:41.026Z,12.71
2018-03-26T13:56:09.297Z,12.58
2018-03-26T13:58:37.632Z,12.52
2018-03-26T14:01:05.865Z,12.46
2018-03-26T14:03:34.235Z,12.65
2018-03-26T14:06:02.531Z,12.69
2018-03-26T14:12:01.213Z,12.67
2018-03-26T14:14:41.416Z,12.85
2018-03-26T14:17:21.463Z,12.84
2018-03-26T14:19:49.751Z,12.93
2018-03-26T14:22:18.027Z,12.66
2018-03-26T14:24:46.292Z,13.04
2018-03-26T14:27:14.571Z,13.13
2018-03-26T14:29:42.843Z,13.63
2018-03-26T14:32:11.128Z,13.79
2018-03-26T14:34:39.403Z,13.72
2018-03-26T14:37:07.684Z,13.65
2018-03-26T14:39:35.960Z,13.27
2018-03-26T14:42:04.235Z,13.38
2018-03-26T14:44:32.519Z,13.29
2018-03-26T14:47:00.788Z,13.03
2018-03-26T14:49:29.071Z,13.13
2018-03-26T14:51:57.347Z,13.71
2018-03-26T14:54:25.609Z,13.65
2018-03-26T14:56:53.888Z,13.67
2018-03-26T14:59:22.164Z,13.78
2018-03-26T15:01:50.447Z,13.95
2018-03-26T15:04:18.740Z,14.02
2018-03-26T15:06:47.024Z,14.16
2018-03-26T15:09:15.447Z,14.20
2018-03-26T15:11:43.716Z,14.25
2018-03-26T15:14:11.999Z,14.16
2018-03-26T15:16:46.098Z,14.04
2018-03-26T15:19:14.375Z,14.20
2018-03-26T15:21:42.651Z,13.84
2018-03-26T15:24:10.970Z,13.90
2018-03-26T15:26:39.248Z,14.41
2018-03-26T15:29:07.511Z,14.14
2018-03-26T15:31:35.795Z,13.59
2018-03-26T15:34:04.065Z,13.75
2018-03-26T15:36:32.335Z,13.77
2018-03-26T15:39:00.968Z,13.52
2018-03-26T15:41:29.256Z,13.15
2018-03-26T15:43:57.529Z,13.25
2018-03-26T15:46:25.793Z,13.30
2018-03-26T15:48:54.072Z,12.83
2018-03-26T15:51:22.341Z,12.91
2018-03-26T15:53:50.628Z,12.89
2018-03-26T15:56:18.896Z,12.72
2018-03-26T15:58:47.191Z,13.04
2018-03-26T16:01:15.463Z,12.71
2018-03-26T16:03:43.735Z,12.96
2018-03-26T16:06:12.015Z,13.06
2018-03-26T16:08:40.292Z,13.09
2018-03-26T16:11:08.575Z,12.84
2018-03-26T16:13:36.848Z,12.73
2018-03-26T16:16:05.120Z,12.83
2018-03-26T16:18:33.452Z,12.78
2018-03-26T16:21:01.666Z,12.84
2018-03-26T16:23:29.948Z,12.48
2018-03-26T16:25:58.223Z,12.38
2018-03-26T16:28:26.503Z,12.51
2018-03-26T16:30:54.768Z,12.64
2018-03-26T16:33:23.035Z,12.78
2018-03-26T16:35:51.320Z,12.93
2018-03-26T16:38:19.597Z,12.76
2018-03-26T16:40:47.888Z,12.85
2018-03-26T16:43:16.159Z,12.47
2018-03-26T16:45:44.439Z,12.58
2018-03-26T16:48:12.723Z,12.48
2018-03-26T16:50:41.012Z,12.69
2018-03-26T16:53:09.279Z,12.78
2018-03-26T16:55:37.553Z,12.66
2018-03-26T16:58:05.831Z,12.54
2018-03-26T17:00:34.131Z,12.42
2018-03-26T17:03:02.412Z,12.48
2018-03-26T17:05:30.680Z,12.45
2018-03-26T17:07:58.960Z,12.27
2018-03-26T17:10:27.231Z,12.34
2018-03-26T17:12:55.513Z,12.21
2018-03-26T17:15:23.780Z,12.32
2018-03-26T17:17:52.059Z,12.16
2018-03-26T17:20:20.346Z,12.20
2018-03-26T17:22:48.616Z,12.31
2018-03-26T17:25:16.892Z,12.27
2018-03-26T17:27:45.160Z,12.18
2018-03-26T17:30:13.452Z,12.23
2018-03-26T17:32:41.719Z,12.31
2018-03-26T17:35:10.016Z,12.31
2018-03-26T17:37:38.288Z,12.24
2018-03-26T17:40:06.560Z,12.26
2018-03-26T17:42:34.844Z,12.10
2018-03-26T17:45:03.121Z,12.15
2018-03-26T17:47:31.511Z,12.11
2018-03-26T17:49:59.771Z,12.09
2018-03-26T17:52:28.068Z,11.98
2018-03-26T17:54:56.320Z,11.99
2018-03-26T17:57:24.611Z,12.02
2018-03-26T17:59:52.884Z,12.06
2018-03-26T18:02:21.152Z,12.15
2018-03-26T18:04:49.427Z,12.13
2018-03-26T18:07:17.699Z,12.09
2018-03-26T18:09:45.987Z,12.17
2018-03-26T18:12:14.267Z,12.10
2018-03-26T18:14:42.554Z,12.07
2018-03-26T18:17:10.831Z,12.01
2018-03-26T18:19:39.133Z,11.98
2018-03-26T18:22:07.410Z,11.94
2018-03-26T18:24:35.676Z,11.91
2018-03-26T18:27:03.955Z,12.01
2018-03-26T18:29:32.229Z,11.95
2018-03-26T18:32:00.516Z,11.93
2018-03-26T18:34:28.788Z,11.91
2018-03-26T18:36:57.067Z,11.87
2018-03-26T18:39:25.337Z,11.89
2018-03-26T18:41:53.620Z,11.76
2018-03-26T18:44:21.895Z,11.68
2018-03-26T18:46:50.159Z,11.52
2018-03-26T18:49:18.446Z,11.57
2018-03-26T18:51:46.704Z,11.50
2018-03-26T18:54:14.990Z,11.25
2018-03-26T18:56:43.260Z,11.10
2018-03-26T18:59:11.531Z,11.13
2018-03-26T19:01:39.804Z,11.14
2018-03-26T19:04:08.115Z,11.08
2018-03-26T19:06:36.395Z,11.02
2018-03-26T19:09:04.667Z,11.08
2018-03-26T19:11:32.948Z,11.08
2018-03-26T19:14:01.231Z,11.02
2018-03-26T19:16:29.509Z,10.96
2018-03-26T19:18:57.776Z,10.96
2018-03-26T19:21:26.081Z,11.02
2018-03-26T19:23:54.352Z,11.03
2018-03-26T19:26:22.624Z,10.95
2018-03-26T19:28:50.908Z,10.97
2018-03-26T19:31:19.175Z,11.01
2018-03-26T19:33:47.472Z,10.80
2018-03-26T19:36:15.733Z,10.80
2018-03-26T19:38:44.029Z,10.74
2018-03-26T19:41:12.304Z,10.80
2018-03-26T19:43:40.579Z,10.74
2018-03-26T19:46:08.873Z,10.72
2018-03-26T19:48:37.144Z,10.76
2018-03-26T19:51:05.426Z,10.78
2018-03-26T19:53:33.722Z,10.64
2018-03-26T19:56:02.002Z,10.70
2018-03-26T19:58:30.275Z,10.77
2018-03-26T20:00:58.907Z,10.83
2018-03-26T20:03:27.194Z,10.89
2018-03-26T20:05:55.460Z,10.53
2018-03-26T20:08:23.743Z,10.55
2018-03-26T20:10:52.035Z,10.36
2018-03-26T20:13:20.319Z,10.52
2018-03-26T20:15:48.587Z,10.38
2018-03-26T20:18:16.876Z,10.48
2018-03-26T20:20:45.146Z,10.53
2018-03-26T20:23:13.443Z,10.46
2018-03-26T20:25:41.712Z,10.49
2018-03-26T20:28:10.009Z,10.20
2018-03-26T20:30:38.287Z,10.31
2018-03-26T20:33:06.564Z,10.39
2018-03-26T20:35:34.856Z,10.20
2018-03-26T20:38:03.139Z,10.27
2018-03-26T20:40:31.424Z,10.31
2018-03-26T20:42:59.703Z,10.03
2018-03-26T20:45:27.997Z,10.05
2018-03-26T20:47:56.268Z,9.84
2018-03-26T20:50:24.551Z,9.87
2018-03-26T20:52:52.828Z,9.59
2018-03-26T20:55:21.088Z,9.89
2018-03-26T20:57:49.376Z,10.07
2018-03-26T21:00:17.656Z,9.98
2018-03-26T21:02:45.938Z,10.06
2018-03-26T21:05:14.223Z,10.07
2018-03-26T21:07:42.507Z,9.64
2018-03-26T21:10:10.780Z,9.94
2018-03-26T21:12:39.051Z,9.71
2018-03-26T21:15:07.328Z,9.66
2018-03-26T21:17:35.596Z,9.43
2018-03-26T21:20:03.874Z,9.77
2018-03-26T21:22:32.143Z,9.94
2018-03-26T21:25:00.431Z,10.09
2018-03-26T21:27:28.704Z,10.19
2018-03-26T21:29:56.984Z,10.19
2018-03-26T21:32:25.264Z,10.16
2018-03-26T21:34:53.539Z,10.28
2018-03-26T21:37:21.835Z,10.33
2018-03-26T21:39:50.119Z,10.21
2018-03-26T21:42:18.403Z,10.04
2018-03-26T21:44:46.695Z,10.13
2018-03-26T21:47:14.968Z,10.08
2018-03-26T21:49:44.179Z,9.98
2018-03-26T21:52:12.983Z,9.89
2018-03-26T21:54:45.348Z,9.78
2018-03-26T21:57:13.636Z,9.91
2018-03-26T21:59:41.900Z,9.89
2018-03-26T22:02:10.167Z,9.77
2018-03-26T22:04:38.436Z,9.68
2018-03-26T22:07:06.696Z,9.87
2018-03-26T22:09:34.971Z,9.98
2018-03-26T22:12:03.247Z,9.85
2018-03-26T22:14:31.516Z,9.55
2018-03-26T22:16:59.790Z,9.90
2018-03-26T22:19:28.067Z,9.49
2018-03-26T22:21:56.340Z,9.81
2018-03-26T22:24:24.607Z,9.86
2018-03-26T22:26:52.897Z,10.00
2018-03-26T22:29:21.167Z,9.98
2018-03-26T22:31:49.443Z,9.99
2018-03-26T22:34:17.715Z,9.96
2018-03-26T22:36:45.987Z,9.98
2018-03-26T22:39:14.254Z,9.91
2018-03-26T22:41:42.549Z,9.81
2018-03-26T22:44:10.827Z,9.89
2018-03-26T22:46:39.100Z,9.91
2018-03-26T22:49:07.375Z,9.87
2018-03-26T22:51:35.640Z,9.85
2018-03-26T22:54:03.916Z,9.81
2018-03-26T22:56:32.192Z,9.58
2018-03-26T22:59:00.471Z,9.74
2018-03-26T23:01:28.739Z,9.62
2018-03-26T23:03:57.027Z,9.42
2018-03-26T23:06:25.293Z,9.48
2018-03-26T23:08:53.559Z,9.29
2018-03-26T23:11:21.836Z,9.46
2018-03-26T23:13:50.115Z,9.35
2018-03-26T23:16:18.402Z,9.31
2018-03-26T23:18:46.659Z,9.32
2018-03-26T23:21:14.935Z,9.35
2018-03-26T23:23:49.157Z,9.25
2018-03-26T23:26:17.438Z,9.25
2018-03-26T23:28:45.701Z,9.09
2018-03-26T23:31:14.012Z,9.16
2018-03-26T23:33:42.276Z,8.76
2018-03-26T23:36:10.562Z,8.50
2018-03-26T23:38:38.828Z,8.68
2018-03-26T23:41:07.095Z,8.77
2018-03-26T23:43:35.374Z,8.68
2018-03-26T23:46:03.648Z,8.75
2018-03-26T23:48:31.933Z,8.81
2018-03-26T23:51:00.200Z,8.81
2018-03-26T23:53:28.504Z,8.55
2018-03-26T23:55:56.772Z,8.59
2018-03-26T23:58:25.039Z,8.61
